createdAt,value
2018-02-02T14:03:18.999Z,26464
2018-02-02T14:03:31.635Z,26400
2018-02-02T14:03:44.211Z,26464
2018-02-02T14:03:56.952Z,26912
2018-02-02T14:04:08.691Z,27936
2018-02-02T14:04:22.023Z,27008
2018-02-02T14:04:34.698Z,26400
2018-02-02T14:04:47.286Z,26400
2018-02-02T14:05:00.656Z,26880
2018-02-02T14:05:12.418Z,27232
2018-02-02T14:05:24.537Z,26848
2018-02-02T14:05:36.951Z,26816
2018-02-02T14:05:49.126Z,26976
2018-02-02T14:06:02.252Z,26944
2018-02-02T14:06:14.876Z,26880
2018-02-02T14:06:28.093Z,28384
2018-02-02T14:06:41.293Z,27040
2018-02-02T14:06:53.870Z,27040
2018-02-02T14:07:06.451Z,27424
2018-02-02T14:07:19.132Z,28032
2018-02-02T14:07:32.214Z,28864
2018-02-02T14:07:44.270Z,27616
2018-02-02T14:07:56.955Z,27616
2018-02-02T14:08:09.087Z,28768
2018-02-02T14:08:22.382Z,28352
2018-02-02T14:08:35.475Z,27136
2018-02-02T14:08:47.686Z,27040
2018-02-02T14:08:59.829Z,26944
2018-02-02T14:09:12.926Z,27264
2018-02-02T14:09:26.008Z,26848
2018-02-02T14:09:39.121Z,28608
2018-02-02T14:09:52.285Z,29248
2018-02-02T14:10:03.912Z,27552
2018-02-02T14:10:16.489Z,26016
2018-02-02T14:10:29.144Z,26624
2018-02-02T14:10:42.923Z,26048
2018-02-02T14:10:55.559Z,26272
2018-02-02T14:11:07.764Z,26944
2018-02-02T14:11:20.321Z,26752
2018-02-02T14:11:32.725Z,26560
2018-02-02T14:11:45.224Z,25568
2018-02-02T14:11:57.787Z,25376
2018-02-02T14:12:09.985Z,26208
2018-02-02T14:12:22.216Z,26464
2018-02-02T14:12:34.462Z,26016
2018-02-02T14:12:47.124Z,25600
2018-02-02T14:13:00.830Z,25568
2018-02-02T14:13:12.549Z,25632
2018-02-02T14:13:24.670Z,25792
2018-02-02T14:13:36.867Z,26048
2018-02-02T14:13:50.091Z,26432
2018-02-02T14:14:02.253Z,27104
2018-02-02T14:14:14.890Z,27136
2018-02-02T14:14:26.937Z,27936
2018-02-02T14:14:40.011Z,27296
2018-02-02T14:14:52.546Z,27232
2018-02-02T14:15:05.706Z,27584
2018-02-02T14:15:18.386Z,27680
2018-02-02T14:15:30.969Z,27456
2018-02-02T14:15:42.726Z,27168
2018-02-02T14:15:56.504Z,27232
2018-02-02T14:16:08.646Z,27104
2018-02-02T14:16:20.383Z,27168
2018-02-02T14:16:33.160Z,27488
2018-02-02T14:16:46.204Z,28032
2018-02-02T14:16:59.314Z,27776
2018-02-02T14:17:12.956Z,27616
2018-02-02T14:17:25.190Z,27552
2018-02-02T14:17:37.838Z,27680
2018-02-02T14:17:50.526Z,27840
2018-02-02T14:18:03.603Z,28512
2018-02-02T14:18:16.687Z,27872
2018-02-02T14:18:29.323Z,27968
2018-02-02T14:18:41.901Z,27616
2018-02-02T14:18:54.003Z,27872
2018-02-02T14:19:06.588Z,28288
2018-02-02T14:19:19.363Z,30176
2018-02-02T14:19:31.924Z,29312
2018-02-02T14:19:44.571Z,30592
2018-02-02T14:19:56.239Z,31040
2018-02-02T14:20:08.887Z,30656
2018-02-02T14:20:21.732Z,29024
2018-02-02T14:20:34.791Z,28448
2018-02-02T14:20:47.769Z,29120
2018-02-02T14:21:00.580Z,28352
2018-02-02T14:21:12.881Z,28160
2018-02-02T14:21:26.290Z,28384
2018-02-02T14:21:37.930Z,27840
2018-02-02T14:21:50.036Z,27872
2018-02-02T14:22:03.106Z,27552
2018-02-02T14:22:15.673Z,27616
2018-02-02T14:22:27.745Z,27616
2018-02-02T14:22:40.963Z,27776
2018-02-02T14:22:54.115Z,27616
2018-02-02T14:23:07.253Z,27136
2018-02-02T14:23:20.370Z,27168
2018-02-02T14:23:32.599Z,27008
2018-02-02T14:23:45.865Z,26912
2018-02-02T14:23:58.463Z,26944
2018-02-02T14:24:10.538Z,27008
2018-02-02T14:24:23.556Z,27072
2018-02-02T14:24:35.173Z,27104
2018-02-02T14:24:47.206Z,27136
2018-02-02T14:24:59.856Z,27296
2018-02-02T14:25:13.270Z,27296
2018-02-02T14:25:25.879Z,27296
2018-02-02T14:25:38.019Z,27360
2018-02-02T14:25:51.232Z,27328
2018-02-02T14:26:04.532Z,27328
2018-02-02T14:26:17.600Z,27424
2018-02-02T14:26:30.735Z,27360
2018-02-02T14:26:47.588Z,27424
2018-02-02T14:27:00.233Z,27584
2018-02-02T14:27:13.968Z,27680
2018-02-02T14:27:26.658Z,27936
2018-02-02T14:27:39.627Z,28704
2018-02-02T14:27:52.251Z,28416
2018-02-02T14:28:05.268Z,29504
2018-02-02T14:28:17.742Z,30016
2018-02-02T14:28:29.829Z,28096
2018-02-02T14:28:43.175Z,27808
2018-02-02T14:28:56.442Z,28032
2018-02-02T14:29:09.133Z,29792
2018-02-02T14:29:21.684Z,27968
2018-02-02T14:29:35.033Z,27744
2018-02-02T14:29:48.193Z,28096
2018-02-02T14:30:00.768Z,27264
2018-02-02T14:30:13.405Z,26880
2018-02-02T14:30:26.163Z,26720
2018-02-02T14:30:38.540Z,26464
2018-02-02T14:30:51.196Z,26368
2018-02-02T14:31:03.447Z,26304
2018-02-02T14:31:15.582Z,26144
2018-02-02T14:31:27.738Z,26048
2018-02-02T14:31:39.946Z,26016
2018-02-02T14:31:52.486Z,26112
2018-02-02T14:32:05.181Z,26336
2018-02-02T14:32:17.402Z,26912
2018-02-02T14:32:30.626Z,27232
2018-02-02T14:32:43.703Z,26720
2018-02-02T14:32:56.298Z,26656
2018-02-02T14:33:09.353Z,26528
2018-02-02T14:33:21.559Z,26432
2018-02-02T14:33:34.297Z,26528
2018-02-02T14:33:47.447Z,26752
2018-02-02T14:34:00.551Z,27040
2018-02-02T14:34:13.161Z,27168
2018-02-02T14:34:25.802Z,27104
2018-02-02T14:34:37.889Z,27456
2018-02-02T14:34:50.694Z,27520
2018-02-02T14:35:02.333Z,29760
2018-02-02T14:35:14.709Z,28256
2018-02-02T14:35:27.269Z,27744
2018-02-02T14:35:40.001Z,27712
2018-02-02T14:35:53.202Z,28768
2018-02-02T14:36:06.281Z,28288
2018-02-02T14:36:19.638Z,26560
2018-02-02T14:36:31.773Z,26400
2018-02-02T14:36:44.814Z,26528
2018-02-02T14:36:57.448Z,26432
2018-02-02T14:37:10.520Z,27584
2018-02-02T14:37:23.571Z,26368
2018-02-02T14:37:36.058Z,26112
2018-02-02T14:37:48.748Z,26496
2018-02-02T14:38:00.943Z,26144
2018-02-02T14:38:14.236Z,26304
2018-02-02T14:38:27.497Z,26688
2018-02-02T14:38:39.693Z,26144
2018-02-02T14:38:52.996Z,26048
2018-02-02T14:39:04.677Z,26080
2018-02-02T14:39:17.263Z,26080
2018-02-02T14:39:29.400Z,26112
2018-02-02T14:39:41.951Z,27200
2018-02-02T14:39:55.290Z,26432
2018-02-02T14:40:08.076Z,26496
2018-02-02T14:40:20.201Z,26656
2018-02-02T14:40:33.959Z,26240
2018-02-02T14:40:46.085Z,26624
2018-02-02T14:40:58.746Z,26368
2018-02-02T14:41:11.796Z,26720
2018-02-02T14:41:24.836Z,26592
2018-02-02T14:41:38.575Z,27392
2018-02-02T14:41:50.230Z,26240
2018-02-02T14:42:02.759Z,25952
2018-02-02T14:42:16.093Z,25856
2018-02-02T14:42:30.096Z,25760
2018-02-02T14:42:42.189Z,25696
2018-02-02T14:42:53.931Z,25824
2018-02-02T14:43:06.971Z,26304
2018-02-02T14:43:20.741Z,26112
2018-02-02T14:43:32.876Z,26016
2018-02-02T14:43:44.895Z,26240
2018-02-02T14:43:57.810Z,25952
2018-02-02T14:44:09.994Z,25728
2018-02-02T14:44:23.324Z,25568
2018-02-02T14:44:35.781Z,25568
2018-02-02T14:44:48.483Z,25664
2018-02-02T14:45:01.404Z,26688
2018-02-02T14:45:14.508Z,25664
2018-02-02T14:45:27.135Z,25920
2018-02-02T14:45:39.782Z,26176
2018-02-02T14:45:51.967Z,25312
2018-02-02T14:46:03.574Z,25280
2018-02-02T14:46:15.214Z,25568
2018-02-02T14:46:28.083Z,25600
2018-02-02T14:46:40.576Z,25856
2018-02-02T14:46:53.183Z,28736
2018-02-02T14:47:05.332Z,25568
2018-02-02T14:47:16.956Z,25344
2018-02-02T14:47:29.835Z,25248
2018-02-02T14:47:42.934Z,25280
2018-02-02T14:47:56.039Z,26880
2018-02-02T14:48:08.624Z,28864
2018-02-02T14:48:20.305Z,27424
2018-02-02T14:48:32.935Z,26144
2018-02-02T14:48:45.534Z,25664
2018-02-02T14:48:57.887Z,26144
2018-02-02T14:49:11.269Z,25440
2018-02-02T14:49:24.614Z,24960
2018-02-02T14:49:37.183Z,24800
2018-02-02T14:49:50.533Z,24704
2018-02-02T14:50:02.635Z,24544
2018-02-02T14:50:15.257Z,24512
2018-02-02T14:50:27.437Z,24512
2018-02-02T14:50:40.701Z,24416
2018-02-02T14:50:52.825Z,25024
2018-02-02T14:51:05.441Z,24512
2018-02-02T14:51:17.194Z,24608
2018-02-02T14:51:30.957Z,24288
2018-02-02T14:51:43.093Z,24352
2018-02-02T14:51:56.123Z,24416
2018-02-02T14:52:08.295Z,24480
2018-02-02T14:52:21.413Z,24416
2018-02-02T14:52:33.624Z,24320
2018-02-02T14:52:46.835Z,24384
2018-02-02T14:52:59.094Z,24480
2018-02-02T14:53:12.881Z,24832
2018-02-02T14:53:25.488Z,25120
2018-02-02T14:53:38.540Z,25888
2018-02-02T14:53:52.369Z,26240
2018-02-02T14:54:04.904Z,25248
2018-02-02T14:54:17.963Z,24448
2018-02-02T14:54:30.657Z,24384
2018-02-02T14:54:43.781Z,24320
2018-02-02T14:54:55.837Z,24320
2018-02-02T14:55:07.957Z,24448
2018-02-02T14:55:20.584Z,24256
2018-02-02T14:55:32.730Z,24256
2018-02-02T14:55:45.383Z,24288
2018-02-02T14:55:58.096Z,24384
2018-02-02T14:56:11.234Z,24448
2018-02-02T14:56:25.093Z,24480
2018-02-02T14:56:37.732Z,24512
2018-02-02T14:56:50.826Z,24544
2018-02-02T14:57:02.522Z,24640
2018-02-02T14:57:15.178Z,24736
2018-02-02T14:57:27.325Z,24896
2018-02-02T14:57:40.557Z,24992
2018-02-02T14:57:53.973Z,25120
2018-02-02T14:58:06.606Z,25184
2018-02-02T14:58:19.897Z,25408
2018-02-02T14:58:31.633Z,25504
2018-02-02T14:58:44.291Z,25696
2018-02-02T14:58:56.926Z,25824
2018-02-02T14:59:09.550Z,25600
2018-02-02T14:59:22.613Z,25664
2018-02-02T14:59:35.225Z,26304
2018-02-02T14:59:47.449Z,25632
2018-02-02T15:00:00.540Z,25984
2018-02-02T15:00:13.805Z,27360
2018-02-02T15:00:26.858Z,25728
2018-02-02T15:00:40.242Z,25408
2018-02-02T15:00:52.781Z,26208
2018-02-02T15:01:05.024Z,25312
2018-02-02T15:01:17.671Z,25312
2018-02-02T15:01:30.678Z,26208
2018-02-02T15:01:43.329Z,25728
2018-02-02T15:01:55.969Z,24864
2018-02-02T15:02:08.627Z,24736
2018-02-02T15:02:21.289Z,24672
2018-02-02T15:02:33.611Z,24544
2018-02-02T15:02:46.188Z,24480
2018-02-02T15:03:00.071Z,24672
2018-02-02T15:03:13.355Z,25120
2018-02-02T15:03:26.487Z,24704
2018-02-02T15:03:39.809Z,24672
2018-02-02T15:03:52.902Z,24224
2018-02-02T15:04:06.185Z,24160
2018-02-02T15:04:19.283Z,24128
2018-02-02T15:04:31.911Z,24064
2018-02-02T15:04:44.543Z,24032
2018-02-02T15:04:57.905Z,23936
2018-02-02T15:05:10.502Z,23968
2018-02-02T15:05:23.545Z,23968
2018-02-02T15:05:36.723Z,23968
2018-02-02T15:05:49.373Z,23936
2018-02-02T15:06:02.020Z,24032
2018-02-02T15:06:14.234Z,24032
2018-02-02T15:06:26.250Z,24192
2018-02-02T15:06:38.448Z,24320
2018-02-02T15:06:50.107Z,24576
2018-02-02T15:07:02.731Z,24736
2018-02-02T15:07:15.329Z,24800
2018-02-02T15:07:27.053Z,24480
2018-02-02T15:07:39.303Z,24544
2018-02-02T15:07:52.455Z,25440
2018-02-02T15:08:05.819Z,25088
2018-02-02T15:08:17.133Z,24928
2018-02-02T15:08:29.695Z,24800
2018-02-02T15:08:42.714Z,24640
2018-02-02T15:08:55.297Z,24608
2018-02-02T15:09:09.202Z,24384
2018-02-02T15:09:22.124Z,24288
2018-02-02T15:09:33.885Z,24288
2018-02-02T15:09:45.988Z,24256
2018-02-02T15:10:00.098Z,24928
2018-02-02T15:10:11.837Z,24160
2018-02-02T15:10:24.455Z,24032
2018-02-02T15:10:38.033Z,24064
2018-02-02T15:10:51.085Z,23936
2018-02-02T15:11:03.163Z,23936
2018-02-02T15:11:15.363Z,23872
2018-02-02T15:11:27.920Z,23328
2018-02-02T15:11:40.059Z,23168
2018-02-02T15:11:53.365Z,23168
2018-02-02T15:12:05.684Z,23200
2018-02-02T15:12:18.789Z,23104
2018-02-02T15:12:31.742Z,23040
2018-02-02T15:12:44.295Z,22976
2018-02-02T15:12:57.643Z,23008
2018-02-02T15:13:10.797Z,22976
2018-02-02T15:13:23.969Z,22944
2018-02-02T15:13:37.341Z,22944
2018-02-02T15:13:49.594Z,23040
2018-02-02T15:14:01.753Z,23168
2018-02-02T15:14:13.501Z,23104
2018-02-02T15:14:26.137Z,23040
2018-02-02T15:14:39.893Z,23296
2018-02-02T15:14:52.020Z,24928
2018-02-02T15:15:05.873Z,24384
2018-02-02T15:15:18.426Z,25184
2018-02-02T15:15:30.548Z,23968
2018-02-02T15:15:42.632Z,23168
2018-02-02T15:15:55.357Z,22912
2018-02-02T15:16:07.405Z,22816
2018-02-02T15:16:19.975Z,22784
2018-02-02T15:16:32.545Z,23296
2018-02-02T15:16:45.585Z,22144
2018-02-02T15:16:57.313Z,21984
2018-02-02T15:17:09.883Z,22016
2018-02-02T15:17:22.514Z,21952
2018-02-02T15:17:35.274Z,21888
2018-02-02T15:17:47.853Z,21856
2018-02-02T15:17:59.507Z,21856
2018-02-02T15:18:12.190Z,22048
2018-02-02T15:18:24.852Z,23104
2018-02-02T15:18:37.974Z,22304
2018-02-02T15:18:50.740Z,22176
2018-02-02T15:19:02.419Z,21504
2018-02-02T15:19:15.568Z,21632
2018-02-02T15:19:28.734Z,21280
2018-02-02T15:19:41.337Z,21152
2018-02-02T15:19:54.352Z,21024
2018-02-02T15:20:08.262Z,21184
2018-02-02T15:20:21.387Z,21280
2018-02-02T15:20:34.279Z,21632
2018-02-02T15:20:47.375Z,21376
2018-02-02T15:20:58.975Z,21536
2018-02-02T15:21:12.536Z,21568
2018-02-02T15:21:25.651Z,21952
2018-02-02T15:21:37.764Z,22464
2018-02-02T15:21:50.829Z,21312
2018-02-02T15:22:04.171Z,21632
2018-02-02T15:22:17.300Z,22048
2018-02-02T15:22:29.863Z,20800
2018-02-02T15:22:42.698Z,20512
2018-02-02T15:22:55.348Z,20416
2018-02-02T15:23:07.015Z,20480
2018-02-02T15:23:19.238Z,20480
2018-02-02T15:23:32.319Z,20640
2018-02-02T15:23:45.424Z,20480
2018-02-02T15:23:57.511Z,20608
2018-02-02T15:24:09.667Z,21632
2018-02-02T15:24:22.700Z,22240
2018-02-02T15:24:34.844Z,22912
2018-02-02T15:24:47.869Z,21440
2018-02-02T15:24:59.949Z,21984
2018-02-02T15:25:12.471Z,21632
2018-02-02T15:25:25.585Z,22400
2018-02-02T15:25:38.107Z,20480
2018-02-02T15:25:50.999Z,19968
2018-02-02T15:26:03.115Z,19552
2018-02-02T15:26:15.294Z,19424
2018-02-02T15:26:27.436Z,19424
2018-02-02T15:26:39.536Z,19584
2018-02-02T15:26:52.169Z,20128
2018-02-02T15:27:05.251Z,20800
2018-02-02T15:27:17.819Z,20448
2018-02-02T15:27:30.490Z,19424
2018-02-02T15:27:43.529Z,19616
2018-02-02T15:27:56.188Z,21728
2018-02-02T15:28:08.400Z,21408
2018-02-02T15:28:21.669Z,21248
2018-02-02T15:28:35.695Z,21664
2018-02-02T15:28:48.330Z,21728
2018-02-02T15:29:01.265Z,21248
2018-02-02T15:29:13.599Z,20832
2018-02-02T15:29:25.765Z,19648
2018-02-02T15:29:39.030Z,18720
2018-02-02T15:29:52.088Z,19360
2018-02-02T15:30:05.114Z,20800
2018-02-02T15:30:17.733Z,20928
2018-02-02T15:30:30.812Z,21120
2018-02-02T15:30:42.937Z,20640
2018-02-02T15:30:56.020Z,19072
2018-02-02T15:31:08.211Z,19648
2018-02-02T15:31:20.918Z,20800
2018-02-02T15:31:34.418Z,22240
2018-02-02T15:31:47.002Z,22944
2018-02-02T15:32:00.100Z,23072
2018-02-02T15:32:13.192Z,22720
2018-02-02T15:32:25.839Z,22368
2018-02-02T15:32:38.471Z,22880
2018-02-02T15:32:51.289Z,22528
2018-02-02T15:33:03.430Z,22816
2018-02-02T15:33:15.151Z,23040
2018-02-02T15:33:27.967Z,22880
2018-02-02T15:33:40.536Z,22496
2018-02-02T15:33:52.776Z,22368
2018-02-02T15:34:05.932Z,22720
2018-02-02T15:34:18.069Z,23008
2018-02-02T15:34:30.676Z,22560
2018-02-02T15:34:42.348Z,20960
2018-02-02T15:34:54.554Z,20352
2018-02-02T15:35:07.412Z,19968
2018-02-02T15:35:19.638Z,19744
2018-02-02T15:35:32.255Z,19808
2018-02-02T15:35:44.920Z,20288
2018-02-02T15:35:57.025Z,20736
2018-02-02T15:36:12.870Z,20576
2018-02-02T15:36:25.506Z,20608
2018-02-02T15:36:38.135Z,20064
2018-02-02T15:36:51.229Z,19840
2018-02-02T15:37:03.968Z,19936
2018-02-02T15:37:16.952Z,20064
2018-02-02T15:37:30.373Z,20256
2018-02-02T15:37:42.564Z,20384
2018-02-02T15:37:55.989Z,20416
2018-02-02T15:38:08.149Z,20352
2018-02-02T15:38:21.207Z,20352
2018-02-02T15:38:33.831Z,20352
2018-02-02T15:38:46.445Z,20352
2018-02-02T15:38:58.703Z,20320
2018-02-02T15:39:12.469Z,20352
2018-02-02T15:39:25.696Z,20480
2018-02-02T15:39:38.437Z,20608
2018-02-02T15:39:50.653Z,20768
2018-02-02T15:40:03.823Z,20928
2018-02-02T15:40:17.150Z,21120
2018-02-02T15:40:29.742Z,21248
2018-02-02T15:40:42.908Z,21568
2018-02-02T15:40:54.146Z,21888
2018-02-02T15:41:07.901Z,22208
2018-02-02T15:41:20.998Z,22496
2018-02-02T15:41:32.708Z,22688
2018-02-02T15:41:44.433Z,22944
2018-02-02T15:41:57.510Z,23264
2018-02-02T15:42:09.605Z,23520
2018-02-02T15:42:21.841Z,23616
2018-02-02T15:42:35.137Z,24352
2018-02-02T15:42:46.825Z,24000
2018-02-02T15:42:59.647Z,23616
2018-02-02T15:43:13.411Z,23488
2018-02-02T15:43:26.542Z,23424
2018-02-02T15:43:39.883Z,23744
2018-02-02T15:43:52.874Z,23104
2018-02-02T15:44:05.516Z,22880
2018-02-02T15:44:18.828Z,22624
2018-02-02T15:44:31.323Z,21952
2018-02-02T15:44:44.008Z,21696
2018-02-02T15:44:56.523Z,21664
2018-02-02T15:45:09.170Z,21536
2018-02-02T15:45:21.744Z,21472
2018-02-02T15:45:33.805Z,21376
2018-02-02T15:45:46.040Z,21440
2018-02-02T15:45:58.140Z,21696
2018-02-02T15:46:10.829Z,22336
2018-02-02T15:46:23.508Z,22688
2018-02-02T15:46:36.930Z,22656
2018-02-02T15:46:50.519Z,22720
2018-02-02T15:47:02.662Z,22208
2018-02-02T15:47:14.786Z,22592
2018-02-02T15:47:28.506Z,22592
2018-02-02T15:47:40.144Z,22560
2018-02-02T15:47:53.667Z,22624
2018-02-02T15:48:06.277Z,22464
2018-02-02T15:48:18.886Z,21888
2018-02-02T15:48:31.554Z,22016
2018-02-02T15:48:43.655Z,21248
2018-02-02T15:48:56.182Z,21024
2018-02-02T15:49:08.790Z,21248
2018-02-02T15:49:21.099Z,20256
2018-02-02T15:49:34.245Z,20160
2018-02-02T15:49:46.850Z,19808
2018-02-02T15:49:59.598Z,19648
2018-02-02T15:50:12.005Z,19712
2018-02-02T15:50:25.135Z,19616
2018-02-02T15:50:37.826Z,19648
2018-02-02T15:50:49.895Z,19744
2018-02-02T15:51:02.678Z,21120
2018-02-02T15:51:15.760Z,21184
2018-02-02T15:51:27.860Z,21792
2018-02-02T15:51:40.545Z,21920
2018-02-02T15:51:53.536Z,21696
2018-02-02T15:52:06.690Z,21856
2018-02-02T15:52:17.959Z,22112
2018-02-02T15:52:30.985Z,22304
2018-02-02T15:52:44.768Z,22496
2018-02-02T15:52:56.479Z,21760
2018-02-02T15:53:08.660Z,22048
2018-02-02T15:53:20.833Z,23072
2018-02-02T15:53:33.939Z,23456
2018-02-02T15:53:47.019Z,23904
2018-02-02T15:54:00.118Z,24096
2018-02-02T15:54:13.220Z,24256
2018-02-02T15:54:25.754Z,24448
2018-02-02T15:54:37.896Z,24576
2018-02-02T15:54:51.314Z,24736
2018-02-02T15:55:03.850Z,24768
2018-02-02T15:55:16.865Z,24320
2018-02-02T15:55:28.962Z,24032
2018-02-02T15:55:41.701Z,24224
2018-02-02T15:55:55.438Z,23168
2018-02-02T15:56:08.775Z,22752
2018-02-02T15:56:20.995Z,24000
2018-02-02T15:56:33.688Z,25632
2018-02-02T15:56:46.750Z,25920
2018-02-02T15:56:58.336Z,26080
2018-02-02T15:57:10.974Z,26272
2018-02-02T15:57:23.542Z,25632
2018-02-02T15:57:36.714Z,24864
2018-02-02T15:57:49.720Z,26592
2018-02-02T15:58:02.399Z,26208
2018-02-02T15:58:14.522Z,26688
2018-02-02T15:58:26.692Z,26720
2018-02-02T15:58:39.354Z,26688
2018-02-02T15:58:52.035Z,26432
2018-02-02T15:59:04.232Z,25856
2018-02-02T15:59:16.348Z,26272
2018-02-02T15:59:28.526Z,26048
2018-02-02T15:59:40.639Z,26560
2018-02-02T15:59:53.313Z,24800
2018-02-02T16:00:05.908Z,25472
2018-02-02T16:00:19.100Z,25920
2018-02-02T16:00:31.749Z,25024
2018-02-02T16:00:43.477Z,23744
2018-02-02T16:00:56.131Z,23680
2018-02-02T16:01:08.631Z,25216
2018-02-02T16:01:21.241Z,24928
2018-02-02T16:01:33.775Z,25248
2018-02-02T16:01:45.915Z,24864
2018-02-02T16:01:57.659Z,24480
2018-02-02T16:02:09.786Z,23968
2018-02-02T16:02:21.955Z,23712
2018-02-02T16:02:34.952Z,23808
2018-02-02T16:02:47.078Z,23264
2018-02-02T16:03:00.027Z,23712
2018-02-02T16:03:12.081Z,24640
2018-02-02T16:03:25.137Z,24768
2018-02-02T16:03:41.848Z,24640
2018-02-02T16:03:53.035Z,24672
2018-02-02T16:04:05.727Z,24608
2018-02-02T16:04:18.744Z,24480
2018-02-02T16:04:31.436Z,24320
2018-02-02T16:04:43.525Z,24416
2018-02-02T16:04:55.772Z,24192
2018-02-02T16:05:08.359Z,23840
2018-02-02T16:05:20.529Z,23552
2018-02-02T16:05:34.345Z,23520
2018-02-02T16:05:47.428Z,23648
2018-02-02T16:05:59.601Z,23840
2018-02-02T16:06:12.251Z,23904
2018-02-02T16:06:24.850Z,24000
2018-02-02T16:06:37.463Z,23872
2018-02-02T16:06:51.009Z,23904
2018-02-02T16:07:04.106Z,23872
2018-02-02T16:07:16.796Z,23744
2018-02-02T16:07:28.084Z,23488
2018-02-02T16:07:39.738Z,23584
2018-02-02T16:07:52.417Z,23584
2018-02-02T16:08:06.194Z,23584
2018-02-02T16:08:18.817Z,23520
2018-02-02T16:08:31.898Z,23552
2018-02-02T16:08:44.907Z,23648
2018-02-02T16:08:57.555Z,23520
2018-02-02T16:09:10.471Z,23488
2018-02-02T16:09:23.391Z,23648
2018-02-02T16:09:36.015Z,22944
2018-02-02T16:09:49.298Z,23520
2018-02-02T16:10:01.434Z,23200
2018-02-02T16:10:14.114Z,21856
2018-02-02T16:10:27.191Z,23520
2018-02-02T16:10:38.871Z,23392
2018-02-02T16:10:51.432Z,23584
2018-02-02T16:11:04.067Z,23552
2018-02-02T16:11:17.208Z,23552
2018-02-02T16:11:29.842Z,23360
2018-02-02T16:11:42.959Z,23072
2018-02-02T16:11:55.770Z,22752
2018-02-02T16:12:08.417Z,22976
2018-02-02T16:12:21.062Z,23552
2018-02-02T16:12:34.133Z,23168
2018-02-02T16:12:47.883Z,23104
2018-02-02T16:12:59.970Z,23360
2018-02-02T16:13:13.059Z,23104
2018-02-02T16:13:26.198Z,21152
2018-02-02T16:13:38.295Z,20096
2018-02-02T16:13:50.972Z,19936
2018-02-02T16:14:04.097Z,19968
2018-02-02T16:14:15.838Z,20736
2018-02-02T16:14:27.541Z,20480
2018-02-02T16:14:39.679Z,20960
2018-02-02T16:14:51.861Z,20608
2018-02-02T16:15:03.921Z,21568
2018-02-02T16:15:16.074Z,21664
2018-02-02T16:15:29.160Z,21792
2018-02-02T16:15:42.397Z,21760
2018-02-02T16:15:55.028Z,21664
2018-02-02T16:16:07.262Z,21504
2018-02-02T16:16:19.387Z,21344
2018-02-02T16:16:32.452Z,21184
2018-02-02T16:16:44.202Z,20992
2018-02-02T16:16:56.330Z,20544
2018-02-02T16:17:08.524Z,20160
2018-02-02T16:17:20.721Z,20256
2018-02-02T16:17:33.879Z,19584
2018-02-02T16:17:47.036Z,19680
2018-02-02T16:17:59.912Z,17856
2018-02-02T16:18:12.559Z,18080
2018-02-02T16:18:25.172Z,19296
2018-02-02T16:18:38.871Z,17952
2018-02-02T16:18:52.186Z,17120
2018-02-02T16:19:05.266Z,16096
2018-02-02T16:19:18.468Z,15744
2018-02-02T16:19:31.049Z,15840
2018-02-02T16:19:43.693Z,15680
2018-02-02T16:19:55.300Z,15808
2018-02-02T16:20:09.081Z,15372
2018-02-02T16:20:21.708Z,15004
2018-02-02T16:20:34.317Z,15272
2018-02-02T16:20:46.401Z,16704
2018-02-02T16:20:58.593Z,18304
2018-02-02T16:21:10.284Z,15744
2018-02-02T16:21:23.219Z,14760
2018-02-02T16:21:34.960Z,14224
2018-02-02T16:21:46.739Z,13856
2018-02-02T16:22:00.129Z,13556
2018-02-02T16:22:12.740Z,13272
2018-02-02T16:22:24.877Z,13140
2018-02-02T16:22:37.533Z,12996
2018-02-02T16:22:50.211Z,12860
2018-02-02T16:23:01.927Z,12820
2018-02-02T16:23:14.151Z,13172
2018-02-02T16:23:27.231Z,13672
2018-02-02T16:23:39.278Z,14560
2018-02-02T16:23:52.383Z,14512
2018-02-02T16:24:04.889Z,15488
2018-02-02T16:24:17.556Z,18272
2018-02-02T16:24:30.562Z,16832
2018-02-02T16:24:43.819Z,17376
2018-02-02T16:24:56.386Z,18752
2018-02-02T16:25:09.499Z,18464
2018-02-02T16:25:22.653Z,18304
2018-02-02T16:25:34.399Z,18048
2018-02-02T16:25:47.023Z,17568
2018-02-02T16:26:00.123Z,15776
2018-02-02T16:26:13.129Z,15712
2018-02-02T16:26:25.244Z,15840
2018-02-02T16:26:39.003Z,16000
2018-02-02T16:26:51.909Z,16192
2018-02-02T16:27:05.065Z,16352
2018-02-02T16:27:17.301Z,16384
2018-02-02T16:27:29.958Z,16352
2018-02-02T16:27:42.559Z,16352
2018-02-02T16:27:55.185Z,16160
2018-02-02T16:28:07.890Z,15936
2018-02-02T16:28:20.622Z,15648
2018-02-02T16:28:33.233Z,15712
2018-02-02T16:28:45.919Z,15808
2018-02-02T16:28:58.939Z,15968
2018-02-02T16:29:11.115Z,16064
2018-02-02T16:29:22.853Z,16096
2018-02-02T16:29:35.691Z,16064
2018-02-02T16:29:48.415Z,16032
2018-02-02T16:30:01.542Z,16096
2018-02-02T16:30:15.317Z,16192
2018-02-02T16:30:27.519Z,16224
2018-02-02T16:30:39.893Z,16288
2018-02-02T16:30:52.348Z,16448
2018-02-02T16:31:05.736Z,16608
2018-02-02T16:31:18.434Z,16640
2018-02-02T16:31:31.529Z,16672
2018-02-02T16:31:44.187Z,16608
2018-02-02T16:31:56.695Z,16608
2018-02-02T16:32:08.894Z,16608
2018-02-02T16:32:21.468Z,16608
2018-02-02T16:32:34.146Z,16608
2018-02-02T16:32:45.882Z,16608
2018-02-02T16:32:59.783Z,16640
2018-02-02T16:33:13.553Z,16704
2018-02-02T16:33:25.313Z,16768
2018-02-02T16:33:36.954Z,16832
2018-02-02T16:33:49.716Z,16864
2018-02-02T16:34:02.316Z,16896
2018-02-02T16:34:15.340Z,17056
2018-02-02T16:34:28.196Z,17152
2018-02-02T16:34:41.267Z,17248
2018-02-02T16:34:54.701Z,17376
2018-02-02T16:35:07.364Z,17536
2018-02-02T16:35:19.448Z,17664
2018-02-02T16:35:31.492Z,17792
2018-02-02T16:35:43.169Z,17888
2018-02-02T16:35:55.846Z,17984
2018-02-02T16:36:07.568Z,17952
2018-02-02T16:36:19.792Z,17984
2018-02-02T16:36:32.476Z,17984
2018-02-02T16:36:44.529Z,17984
2018-02-02T16:37:00.764Z,18048
2018-02-02T16:37:13.893Z,18144
2018-02-02T16:37:27.837Z,18144
2018-02-02T16:37:39.605Z,18176
2018-02-02T16:37:52.167Z,18112
2018-02-02T16:38:05.628Z,18080
2018-02-02T16:38:18.475Z,18112
2018-02-02T16:38:31.047Z,18112
2018-02-02T16:38:43.474Z,18176
2018-02-02T16:38:56.031Z,18272
2018-02-02T16:39:08.562Z,18464
2018-02-02T16:39:21.315Z,18624
2018-02-02T16:39:33.417Z,18784
2018-02-02T16:39:46.050Z,18944
2018-02-02T16:39:59.117Z,19168
2018-02-02T16:40:12.246Z,19328
2018-02-02T16:40:25.360Z,19456
2018-02-02T16:40:37.513Z,19392
2018-02-02T16:40:50.120Z,19296
2018-02-02T16:41:02.913Z,19168
2018-02-02T16:41:15.020Z,18944
2018-02-02T16:41:27.757Z,18688
2018-02-02T16:41:40.359Z,18624
2018-02-02T16:41:52.004Z,18496
2018-02-02T16:42:04.769Z,18400
2018-02-02T16:42:16.447Z,18336
2018-02-02T16:42:28.614Z,18272
2018-02-02T16:42:40.791Z,18176
2018-02-02T16:42:54.630Z,18208
2018-02-02T16:43:07.751Z,18304
2018-02-02T16:43:20.382Z,18720
2018-02-02T16:43:33.019Z,18688
2018-02-02T16:43:46.011Z,18240
2018-02-02T16:43:59.205Z,18432
2018-02-02T16:44:11.308Z,17824
2018-02-02T16:44:24.193Z,16800
2018-02-02T16:44:36.354Z,16608
2018-02-02T16:44:49.610Z,16192
2018-02-02T16:45:01.365Z,16288
2018-02-02T16:45:12.563Z,17152
2018-02-02T16:45:25.194Z,16416
2018-02-02T16:45:38.202Z,16704
2018-02-02T16:45:50.402Z,17728
2018-02-02T16:46:03.487Z,17056
2018-02-02T16:46:15.654Z,17600
2018-02-02T16:46:29.388Z,16352